createdAt,value
2022-09-06T03:58:31.791Z,0.00
2022-09-06T03:59:31.775Z,0.00
2022-09-06T04:00:31.793Z,0.00
2022-09-06T04:01:31.943Z,0.00
2022-09-06T04:02:31.860Z,0.00
2022-09-06T04:03:31.800Z,0.00
2022-09-06T04:04:31.803Z,0.00
2022-09-06T04:05:31.803Z,0.00
2022-09-06T04:06:31.782Z,0.00
2022-09-06T04:07:31.780Z,0.00
2022-09-06T04:08:31.796Z,0.00
2022-09-06T04:09:31.785Z,0.00
2022-09-06T04:10:31.802Z,0.00
2022-09-06T04:11:31.784Z,0.00
2022-09-06T04:12:31.796Z,0.00
2022-09-06T04:13:31.815Z,0.00
2022-09-06T04:14:31.787Z,0.00
2022-09-06T04:15:30.222Z,0.00
2022-09-06T04:16:31.833Z,0.00
2022-09-06T04:17:30.202Z,0.00
2022-09-06T04:18:30.342Z,0.00
2022-09-06T04:19:31.810Z,0.00
2022-09-06T04:20:32.302Z,0.00
2022-09-06T04:21:31.309Z,0.00
2022-09-06T04:22:30.209Z,0.00
2022-09-06T04:23:31.205Z,0.00
2022-09-06T04:24:31.315Z,0.00
2022-09-06T04:25:31.195Z,0.00
2022-09-06T04:26:31.317Z,0.00
2022-09-06T04:27:30.189Z,0.00
2022-09-06T04:28:31.190Z,0.00
2022-09-06T04:29:31.192Z,4.00
2022-09-06T04:30:31.195Z,4.00
2022-09-06T04:31:31.385Z,4.00
2022-09-06T04:32:30.188Z,0.00
2022-09-06T04:33:31.190Z,4.00
2022-09-06T04:34:31.196Z,4.00
2022-09-06T04:35:31.824Z,8.00
2022-09-06T04:36:31.823Z,4.00
2022-09-06T04:37:30.190Z,4.00
2022-09-06T04:38:31.181Z,8.00
2022-09-06T04:39:31.955Z,4.00
2022-09-06T04:40:30.184Z,8.00
2022-09-06T04:41:30.177Z,8.00
2022-09-06T04:42:30.177Z,8.00
2022-09-06T04:43:31.327Z,8.00
2022-09-06T04:44:31.174Z,12.00
2022-09-06T04:45:31.269Z,16.00
2022-09-06T04:46:31.337Z,16.00
2022-09-06T04:47:31.195Z,16.00
2022-09-06T04:48:31.167Z,12.00
2022-09-06T04:49:31.338Z,16.00
2022-09-06T04:50:31.179Z,16.00
2022-09-06T04:51:31.169Z,16.00
2022-09-06T04:52:30.470Z,16.00
2022-09-06T04:53:31.164Z,16.00
2022-09-06T04:54:31.841Z,20.00
2022-09-06T04:55:31.827Z,20.00
2022-09-06T04:56:31.842Z,24.00
2022-09-06T04:57:31.826Z,24.00
2022-09-06T04:58:31.831Z,28.00
2022-09-06T04:59:31.830Z,28.00
2022-09-06T05:00:31.830Z,32.00
2022-09-06T05:01:31.888Z,32.00
2022-09-06T05:02:31.944Z,32.00
2022-09-06T05:03:31.835Z,36.00
2022-09-06T05:04:31.347Z,36.00
2022-09-06T05:05:31.837Z,40.00
2022-09-06T05:06:31.847Z,40.00
2022-09-06T05:07:31.848Z,44.00
2022-09-06T05:08:31.839Z,44.00
2022-09-06T05:09:31.841Z,48.00
2022-09-06T05:10:31.834Z,48.00
2022-09-06T05:11:31.857Z,48.00
2022-09-06T05:12:31.839Z,48.00
2022-09-06T05:13:31.850Z,52.00
2022-09-06T05:14:30.141Z,52.00
2022-09-06T05:15:30.156Z,52.00
2022-09-06T05:16:31.403Z,52.00
2022-09-06T05:17:31.362Z,52.00
2022-09-06T05:18:30.386Z,52.00
2022-09-06T05:19:30.137Z,52.00
2022-09-06T05:20:30.159Z,52.00
2022-09-06T05:21:31.361Z,48.00
2022-09-06T05:22:30.140Z,52.00
2022-09-06T05:23:30.151Z,52.00
2022-09-06T05:24:31.365Z,52.00
2022-09-06T05:25:31.852Z,52.00
2022-09-06T05:26:31.867Z,52.00
2022-09-06T05:27:31.864Z,56.00
2022-09-06T05:28:31.854Z,52.00
2022-09-06T05:29:31.857Z,56.00
2022-09-06T05:30:31.860Z,56.00
2022-09-06T05:31:31.898Z,60.00
2022-09-06T05:32:31.133Z,64.00
2022-09-06T05:33:31.859Z,60.00
2022-09-06T05:34:30.124Z,60.00
2022-09-06T05:35:31.863Z,64.00
2022-09-06T05:36:31.385Z,64.00
2022-09-06T05:37:31.875Z,64.00
2022-09-06T05:38:31.993Z,64.00
2022-09-06T05:39:31.462Z,64.00
2022-09-06T05:40:31.873Z,68.00
2022-09-06T05:41:30.121Z,68.00
2022-09-06T05:42:31.866Z,72.00
2022-09-06T05:43:31.880Z,72.00
2022-09-06T05:44:31.946Z,76.00
2022-09-06T05:45:31.932Z,76.00
2022-09-06T05:46:31.882Z,80.00
2022-09-06T05:47:31.874Z,88.00
2022-09-06T05:48:36.577Z,100.00
2022-09-06T05:49:32.897Z,108.00
2022-09-06T05:50:30.107Z,116.00
2022-09-06T05:51:30.108Z,128.00
2022-09-06T05:52:31.953Z,144.00
2022-09-06T05:53:30.160Z,156.00
2022-09-06T05:54:30.657Z,168.00
2022-09-06T05:55:30.110Z,184.00
2022-09-06T05:56:30.102Z,196.00
2022-09-06T05:57:31.959Z,212.00
2022-09-06T05:58:30.118Z,228.00
2022-09-06T05:59:33.045Z,244.00
2022-09-06T06:00:30.917Z,260.00
2022-09-06T06:01:30.437Z,276.00
2022-09-06T06:02:30.186Z,288.00
2022-09-06T06:03:31.513Z,300.00
2022-09-06T06:04:31.037Z,312.00
2022-09-06T06:05:31.903Z,324.00
2022-09-06T06:06:30.093Z,336.00
2022-09-06T06:07:30.097Z,344.00
2022-09-06T06:08:31.889Z,356.00
2022-09-06T06:09:30.122Z,360.00
2022-09-06T06:10:34.391Z,368.00
2022-09-06T06:11:30.084Z,376.00
2022-09-06T06:12:30.100Z,388.00
2022-09-06T06:13:30.100Z,396.00
2022-09-06T06:14:30.111Z,408.00
2022-09-06T06:15:31.911Z,420.00
2022-09-06T06:16:30.222Z,432.00
2022-09-06T06:17:30.083Z,444.00
2022-09-06T06:18:30.081Z,456.00
2022-09-06T06:19:31.414Z,468.00
2022-09-06T06:20:32.428Z,476.00
2022-09-06T06:21:30.084Z,484.00
2022-09-06T06:22:30.086Z,488.00
2022-09-06T06:23:30.086Z,492.00
2022-09-06T06:24:30.087Z,496.00
2022-09-06T06:25:31.424Z,500.00
2022-09-06T06:26:31.076Z,504.00
2022-09-06T06:27:31.906Z,508.00
2022-09-06T06:28:31.908Z,512.00
2022-09-06T06:29:31.917Z,512.00
2022-09-06T06:30:31.929Z,512.00
2022-09-06T06:31:31.994Z,512.00
2022-09-06T06:32:32.918Z,508.00
2022-09-06T06:33:31.912Z,504.00
2022-09-06T06:34:31.931Z,496.00
2022-09-06T06:35:31.931Z,488.00
2022-09-06T06:36:31.131Z,488.00
2022-09-06T06:37:31.937Z,488.00
2022-09-06T06:38:31.936Z,496.00
2022-09-06T06:39:31.971Z,500.00
2022-09-06T06:40:31.953Z,508.00
2022-09-06T06:41:31.957Z,520.00
2022-09-06T06:42:31.936Z,532.00
2022-09-06T06:43:31.969Z,552.00
2022-09-06T06:44:31.990Z,576.00
2022-09-06T06:45:31.999Z,604.00
2022-09-06T06:46:31.962Z,644.00
2022-09-06T06:47:31.945Z,684.00
2022-09-06T06:48:31.951Z,704.00
2022-09-06T06:49:31.964Z,708.00
2022-09-06T06:50:31.944Z,708.00
2022-09-06T06:51:31.941Z,708.00
2022-09-06T06:52:31.944Z,716.00
2022-09-06T06:53:31.942Z,736.00
2022-09-06T06:54:31.969Z,752.00
2022-09-06T06:55:31.971Z,760.00
2022-09-06T06:56:30.098Z,760.00
2022-09-06T06:57:30.059Z,752.00
2022-09-06T06:58:30.063Z,736.00
2022-09-06T06:59:31.945Z,728.00
2022-09-06T07:00:31.952Z,732.00
2022-09-06T07:01:32.106Z,740.00
2022-09-06T07:02:31.941Z,744.00
2022-09-06T07:03:31.955Z,748.00
2022-09-06T07:04:32.067Z,748.00
2022-09-06T07:07:33.488Z,740.00
2022-09-06T07:08:31.942Z,740.00
2022-09-06T07:11:31.974Z,728.00
2022-09-06T07:12:31.949Z,716.00
2022-09-06T07:13:32.068Z,704.00
2022-09-06T07:14:31.056Z,688.00
2022-09-06T07:15:31.977Z,676.00
2022-09-06T07:16:32.029Z,664.00
2022-09-06T07:17:31.953Z,656.00
2022-09-06T07:18:31.967Z,656.00
2022-09-06T07:21:39.223Z,668.00
2022-09-06T07:22:31.958Z,664.00
2022-09-06T07:24:30.041Z,668.00
2022-09-06T07:25:30.041Z,676.00
2022-09-06T07:26:32.159Z,700.00
2022-09-06T07:28:30.035Z,780.00
2022-09-06T07:29:32.067Z,836.00
2022-09-06T07:30:30.031Z,892.00
2022-09-06T07:32:30.057Z,1016.00
2022-09-06T07:33:30.094Z,1080.00
2022-09-06T07:34:30.069Z,1140.00
2022-09-06T07:35:30.029Z,1192.00
2022-09-06T07:36:32.171Z,1224.00
2022-09-06T07:37:30.054Z,1220.00
2022-09-06T07:38:57.977Z,1180.00
2022-09-06T07:39:32.062Z,1128.00
2022-09-06T07:40:30.032Z,1096.00
2022-09-06T07:41:30.029Z,1068.00
2022-09-06T07:42:36.065Z,1052.00
2022-09-06T07:43:32.995Z,1036.00
2022-09-06T07:44:31.258Z,1012.00
2022-09-06T07:45:33.031Z,988.00
2022-09-06T07:46:30.058Z,968.00
2022-09-06T07:48:32.028Z,944.00
2022-09-06T07:49:34.687Z,940.00
2022-09-06T07:51:30.024Z,964.00
2022-09-06T07:53:31.688Z,1028.00
2022-09-06T07:54:31.216Z,1060.00
2022-09-06T07:55:32.050Z,1080.00
2022-09-06T07:56:30.170Z,1096.00
2022-09-06T07:57:55.534Z,1112.00
2022-09-06T07:58:33.019Z,1128.00
2022-09-06T07:59:32.014Z,1148.00
2022-09-06T08:00:30.834Z,1176.00
2022-09-06T08:01:34.500Z,1212.00
2022-09-06T08:02:30.100Z,1260.00
2022-09-06T08:03:31.999Z,1308.00
2022-09-06T08:04:31.052Z,1336.00
2022-09-06T08:07:39.490Z,1420.00
2022-09-06T08:09:31.021Z,1504.00
2022-09-06T08:10:32.019Z,1556.00
2022-09-06T08:11:31.066Z,1596.00
2022-09-06T08:12:31.539Z,1652.00
2022-09-06T08:13:32.007Z,1716.00
2022-09-06T08:14:32.041Z,1756.00
2022-09-06T08:15:33.443Z,1792.00
2022-09-06T08:16:31.095Z,1780.00
2022-09-06T08:17:31.539Z,1728.00
2022-09-06T08:18:31.521Z,1660.00
2022-09-06T08:19:31.513Z,1624.00
2022-09-06T08:20:31.517Z,1600.00
2022-09-06T08:21:31.526Z,1604.00
2022-09-06T08:22:31.525Z,1620.00
2022-09-06T08:23:31.536Z,1648.00
2022-09-06T08:24:31.515Z,1732.00
2022-09-06T08:25:31.517Z,2068.00
2022-09-06T08:26:31.543Z,1872.00
2022-09-06T08:27:31.532Z,2084.00
2022-09-06T08:28:31.521Z,2336.00
2022-09-06T08:29:31.520Z,2736.00
2022-09-06T08:30:31.034Z,1580.00
2022-09-06T08:31:31.993Z,1548.00
2022-09-06T08:32:30.020Z,1788.00
2022-09-06T08:33:31.044Z,1708.00
2022-09-06T08:34:31.557Z,1628.00
2022-09-06T08:35:30.016Z,1500.00
2022-09-06T08:36:30.058Z,1440.00
2022-09-06T08:37:31.551Z,2088.00
2022-09-06T08:38:31.528Z,1676.00
2022-09-06T08:39:31.622Z,1908.00
2022-09-06T08:40:31.006Z,1744.00
2022-09-06T08:41:31.604Z,1808.00
2022-09-06T08:42:31.551Z,1632.00
2022-09-06T08:43:31.537Z,2576.00
2022-09-06T08:45:01.260Z,3708.00
2022-09-06T08:45:30.024Z,2492.00
2022-09-06T08:46:31.611Z,3544.00
2022-09-06T08:47:31.560Z,3316.00
2022-09-06T08:48:31.549Z,1624.00
2022-09-06T08:49:30.060Z,2916.00
2022-09-06T08:50:30.014Z,3300.00
2022-09-06T08:51:31.834Z,3396.00
2022-09-06T08:52:31.575Z,3400.00
2022-09-06T08:53:31.556Z,3460.00
2022-09-06T08:54:30.096Z,3500.00
2022-09-06T08:55:30.136Z,3520.00
2022-09-06T08:56:30.016Z,3524.00
2022-09-06T08:57:31.667Z,3520.00
2022-09-06T08:58:30.060Z,3512.00
2022-09-06T08:59:30.013Z,3520.00
2022-09-06T09:00:30.072Z,3532.00
2022-09-06T09:01:31.073Z,3556.00
2022-09-06T09:02:30.122Z,3520.00
2022-09-06T09:03:31.652Z,3532.00
2022-09-06T09:04:30.025Z,3496.00
2022-09-06T09:05:31.596Z,3448.00
2022-09-06T09:06:30.029Z,3440.00
2022-09-06T09:07:31.584Z,3412.00
2022-09-06T09:08:31.570Z,3376.00
2022-09-06T09:09:30.128Z,2464.00
2022-09-06T09:10:30.039Z,2572.00
2022-09-06T09:11:30.032Z,2104.00
2022-09-06T09:12:30.156Z,3256.00
2022-09-06T09:13:33.017Z,2268.00
2022-09-06T09:14:32.646Z,3176.00
2022-09-06T09:15:30.071Z,3108.00
2022-09-06T09:16:31.731Z,3060.00
2022-09-06T09:17:30.068Z,3020.00
2022-09-06T09:18:31.040Z,2992.00
2022-09-06T09:19:31.095Z,2960.00
2022-09-06T09:20:31.581Z,2940.00
2022-09-06T09:21:31.294Z,2920.00
2022-09-06T09:22:30.205Z,2896.00
2022-09-06T09:23:32.564Z,2880.00
2022-09-06T09:24:40.238Z,2864.00
2022-09-06T09:25:40.422Z,2848.00
2022-09-06T09:26:30.190Z,2832.00
2022-09-06T09:28:30.258Z,2824.00
2022-09-06T09:31:31.171Z,2800.00
2022-09-06T09:32:30.590Z,2788.00
2022-09-06T09:33:30.189Z,2780.00
2022-09-06T09:34:30.519Z,2780.00
2022-09-06T09:35:31.250Z,2760.00
2022-09-06T09:36:30.066Z,2752.00
2022-09-06T09:38:32.085Z,2728.00
2022-09-06T09:39:34.245Z,2732.00
2022-09-06T09:40:30.246Z,2724.00
2022-09-06T09:41:30.068Z,2724.00
2022-09-06T09:42:32.943Z,2724.00
2022-09-06T09:43:31.065Z,2736.00
2022-09-06T09:44:33.134Z,2728.00
2022-09-06T09:45:33.566Z,2732.00
2022-09-06T09:46:31.735Z,2752.00
2022-09-06T09:47:32.205Z,2760.00
2022-09-06T09:48:32.410Z,2768.00
2022-09-06T09:49:30.619Z,2768.00
2022-09-06T09:50:31.634Z,2772.00
2022-09-06T09:51:30.105Z,2772.00
2022-09-06T09:52:31.621Z,2776.00
2022-09-06T09:53:32.771Z,2776.00
2022-09-06T09:54:30.121Z,2776.00
2022-09-06T09:55:30.155Z,2776.00
2022-09-06T09:56:32.899Z,2784.00
2022-09-06T09:57:34.877Z,2796.00
2022-09-06T09:58:32.129Z,2800.00
2022-09-06T09:59:51.167Z,2820.00
2022-09-06T10:00:30.384Z,2828.00
2022-09-06T10:12:44.591Z,2968.00
2022-09-06T10:13:43.018Z,2972.00
2022-09-06T10:14:43.015Z,2992.00
2022-09-06T10:15:43.050Z,3012.00
2022-09-06T10:16:43.015Z,3028.00
2022-09-06T10:17:44.598Z,3036.00
2022-09-06T10:18:43.012Z,3048.00
2022-09-06T10:19:44.610Z,3048.00
2022-09-06T10:20:43.037Z,3064.00
2022-09-06T10:21:43.200Z,3076.00
2022-09-06T10:22:43.015Z,3076.00
2022-09-06T10:24:43.618Z,3120.00
2022-09-06T10:25:46.393Z,3116.00
2022-09-06T10:26:43.032Z,3144.00
2022-09-06T10:27:55.726Z,3136.00
2022-09-06T10:28:44.619Z,3148.00
2022-09-06T10:29:43.072Z,3148.00
2022-09-06T10:30:43.107Z,3172.00
2022-09-06T10:31:43.279Z,3192.00
2022-09-06T10:32:43.671Z,3200.00
2022-09-06T10:33:45.249Z,3192.00
2022-09-06T10:34:49.609Z,3216.00
2022-09-06T10:35:43.104Z,3232.00
2022-09-06T10:36:43.067Z,3240.00
2022-09-06T10:37:43.068Z,3232.00
2022-09-06T10:38:44.633Z,3240.00
2022-09-06T10:39:44.731Z,3268.00
2022-09-06T10:40:44.607Z,3288.00
2022-09-06T10:41:43.112Z,3304.00
2022-09-06T10:42:44.611Z,3320.00
2022-09-06T10:43:44.625Z,3328.00
2022-09-06T10:44:43.103Z,3352.00
2022-09-06T10:45:44.102Z,3348.00
2022-09-06T10:46:43.238Z,3368.00
2022-09-06T10:47:43.178Z,3396.00
2022-09-06T10:48:44.642Z,3420.00
2022-09-06T10:49:44.633Z,3440.00
2022-09-06T10:50:43.133Z,3464.00
2022-09-06T10:51:43.124Z,3468.00
2022-09-06T10:52:43.183Z,3488.00
2022-09-06T10:53:44.658Z,3516.00
2022-09-06T10:54:45.143Z,3528.00
2022-09-06T10:55:47.905Z,3540.00
2022-09-06T10:56:45.129Z,3572.00
2022-09-06T10:59:45.710Z,3616.00
2022-09-06T11:00:45.135Z,3644.00
2022-09-06T11:01:43.284Z,3692.00
2022-09-06T11:02:43.437Z,3732.00
2022-09-06T11:05:45.138Z,3772.00
2022-09-06T11:06:45.136Z,3800.00
2022-09-06T11:09:45.192Z,3876.00
2022-09-06T11:10:44.168Z,3884.00
2022-09-06T11:11:45.198Z,3936.00
2022-09-06T11:14:26.271Z,4020.00
2022-09-06T11:15:24.937Z,4080.00
2022-09-06T11:16:24.190Z,4092.00
2022-09-06T11:17:26.301Z,4096.00
2022-09-06T11:18:25.949Z,4152.00
2022-09-06T11:20:28.653Z,4256.00
2022-09-06T11:21:27.555Z,4272.00
2022-09-06T11:22:24.156Z,4320.00
2022-09-06T11:23:27.654Z,4364.00
2022-09-06T11:24:39.207Z,4396.00
2022-09-06T11:25:25.351Z,4492.00
2022-09-06T11:26:24.557Z,4552.00
2022-09-06T11:27:25.059Z,4612.00
2022-09-06T11:28:24.233Z,4644.00
2022-09-06T11:29:24.383Z,4716.00
2022-09-06T11:30:25.011Z,4756.00
2022-09-06T11:32:24.334Z,4808.00
2022-09-06T11:33:31.429Z,4864.00
2022-09-06T11:34:25.159Z,4944.00
2022-09-06T11:35:26.981Z,4980.00
2022-09-06T11:36:25.858Z,5032.00
2022-09-06T11:37:24.542Z,5044.00
2022-09-06T11:38:25.829Z,5116.00
2022-09-06T11:41:27.103Z,5232.00
2022-09-06T11:42:27.524Z,5368.00
2022-09-06T11:43:24.322Z,5448.00
2022-09-06T11:44:24.448Z,5468.00
2022-09-06T11:45:24.385Z,5504.00
2022-09-06T11:46:24.370Z,5612.00
2022-09-06T11:47:27.365Z,5752.00
2022-09-06T11:48:24.388Z,5844.00
2022-09-06T11:49:24.420Z,5848.00
2022-09-06T11:50:27.121Z,5940.00
2022-09-06T11:51:26.233Z,6036.00
2022-09-06T11:52:24.572Z,6108.00
2022-09-06T11:53:26.065Z,6204.00
2022-09-06T11:54:31.039Z,6264.00
2022-09-06T11:55:24.380Z,6328.00
2022-09-06T11:56:34.308Z,6388.00
2022-09-06T11:57:27.363Z,6448.00
2022-09-06T11:58:24.828Z,6500.00
2022-09-06T11:59:24.424Z,6488.00
2022-09-06T12:00:24.491Z,6552.00
2022-09-06T12:01:25.997Z,6624.00
2022-09-06T12:02:24.638Z,6744.00
2022-09-06T12:04:26.265Z,6960.00
2022-09-06T12:05:26.090Z,7052.00
2022-09-06T12:06:25.578Z,7076.00
2022-09-06T12:07:24.714Z,7136.00
2022-09-06T12:08:24.780Z,7228.00
2022-09-06T12:09:24.535Z,7288.00
2022-09-06T12:10:31.849Z,7288.00
2022-09-06T12:11:27.045Z,7360.00
2022-09-06T12:12:29.022Z,7448.00
2022-09-06T12:13:24.577Z,7516.00
2022-09-06T12:14:27.006Z,7632.00
2022-09-06T12:15:26.227Z,7692.00
2022-09-06T12:16:27.891Z,7804.00
2022-09-06T12:17:26.462Z,7880.00
2022-09-06T12:18:27.924Z,7976.00
2022-09-06T12:19:26.665Z,8068.00
2022-09-06T12:20:26.702Z,8156.00
2022-09-06T12:21:24.814Z,8256.00
2022-09-06T12:22:24.629Z,8332.00
2022-09-06T12:23:28.668Z,8428.00
2022-09-06T12:24:27.617Z,8464.00
2022-09-06T12:25:26.690Z,8548.00
2022-09-06T12:26:26.564Z,8676.00
2022-09-06T12:27:26.568Z,8812.00
2022-09-06T12:28:25.770Z,8940.00
2022-09-06T12:29:24.709Z,9052.00
2022-09-06T12:30:26.076Z,9108.00
2022-09-06T12:31:26.665Z,9184.00
2022-09-06T12:32:26.548Z,9252.00
2022-09-06T12:33:24.810Z,9348.00
2022-09-06T12:34:26.570Z,9440.00
2022-09-06T12:36:26.544Z,9608.00
2022-09-06T12:37:25.765Z,9700.00
2022-09-06T12:38:26.643Z,9788.00
2022-09-06T12:39:26.615Z,9892.00
2022-09-06T12:40:26.594Z,9988.00
2022-09-06T12:41:26.618Z,10080.00
2022-09-06T12:42:25.812Z,10256.00
2022-09-06T12:43:26.553Z,10304.00
2022-09-06T12:44:25.844Z,10404.00
2022-09-06T12:45:27.516Z,10484.00
2022-09-06T12:46:26.639Z,10560.00
2022-09-06T12:47:26.586Z,10604.00
2022-09-06T12:48:26.585Z,10668.00
2022-09-06T12:49:26.552Z,10684.00
2022-09-06T12:50:26.555Z,10776.00
2022-09-06T12:51:26.558Z,10664.00
2022-09-06T12:52:27.132Z,10916.00
2022-09-06T12:53:26.677Z,11084.00
2022-09-06T12:54:26.574Z,11120.00
2022-09-06T12:55:25.041Z,11308.00
2022-09-06T12:56:24.971Z,11312.00
2022-09-06T12:57:27.076Z,11400.00
2022-09-06T12:58:24.991Z,11600.00
2022-09-06T12:59:25.020Z,11640.00
2022-09-06T13:00:25.013Z,11740.00
2022-09-06T13:01:26.297Z,11796.00
2022-09-06T13:02:25.163Z,11872.00
2022-09-06T13:03:25.040Z,12032.00
2022-09-06T13:04:26.598Z,12096.00
2022-09-06T13:05:26.305Z,12124.00
2022-09-06T13:06:27.244Z,12224.00
2022-09-06T13:07:26.587Z,12392.00
2022-09-06T13:08:26.148Z,12456.00
2022-09-06T13:09:25.116Z,12460.00
2022-09-06T13:10:25.126Z,12492.00
2022-09-06T13:11:25.165Z,12700.00
2022-09-06T13:12:27.122Z,12908.00
2022-09-06T13:13:25.139Z,12980.00
2022-09-06T13:14:26.648Z,12964.00
2022-09-06T13:15:27.190Z,13040.00
2022-09-06T13:16:25.294Z,13192.00
2022-09-06T13:17:27.121Z,13504.00
2022-09-06T13:18:25.203Z,13424.00
2022-09-06T13:19:26.640Z,13492.00
2022-09-06T13:20:25.210Z,13580.00
2022-09-06T13:21:27.098Z,13796.00
2022-09-06T13:22:27.170Z,13920.00
2022-09-06T13:23:25.256Z,14200.00
2022-09-06T13:24:27.134Z,14416.00
2022-09-06T13:25:25.265Z,15264.00
2022-09-06T13:26:27.102Z,19712.00
2022-09-06T13:27:26.616Z,20192.00
2022-09-06T13:28:25.510Z,18496.00
2022-09-06T13:29:27.106Z,17792.00
2022-09-06T13:30:26.378Z,17344.00
2022-09-06T13:31:25.355Z,17032.00
2022-09-06T13:32:27.127Z,16844.00
2022-09-06T13:33:25.431Z,17048.00
2022-09-06T13:34:26.336Z,17184.00
2022-09-06T13:35:26.625Z,17176.00
2022-09-06T13:36:27.151Z,17280.00
2022-09-06T13:37:27.139Z,17440.00
2022-09-06T13:38:27.181Z,17728.00
2022-09-06T13:39:26.536Z,18784.00
2022-09-06T13:40:25.420Z,21376.00
2022-09-06T13:41:27.123Z,25792.00
2022-09-06T13:42:25.459Z,31616.00
2022-09-06T13:43:27.263Z,38944.00
2022-09-06T13:44:29.079Z,44896.00
2022-09-06T13:45:25.906Z,49152.00
2022-09-06T13:46:40.702Z,50656.00
2022-09-06T13:47:25.998Z,49856.00
2022-09-06T13:48:29.278Z,49088.00
2022-09-06T13:49:27.157Z,50080.00
2022-09-06T13:50:27.766Z,48032.00
2022-09-06T13:51:26.152Z,48768.00
2022-09-06T13:52:28.201Z,52384.00
2022-09-06T13:53:27.134Z,53312.00
2022-09-06T13:54:27.155Z,51616.00
2022-09-06T13:55:27.311Z,52000.00
2022-09-06T13:56:25.553Z,52832.00
2022-09-06T13:57:25.557Z,52800.00
2022-09-06T13:58:27.195Z,53088.00
2022-09-06T13:59:27.172Z,52320.00
2022-09-06T14:00:27.148Z,51712.00
2022-09-06T14:01:27.187Z,51072.00
2022-09-06T14:02:25.706Z,50560.00
2022-09-06T14:03:27.169Z,49664.00
2022-09-06T14:04:25.631Z,49408.00
2022-09-06T14:05:25.643Z,49280.00
2022-09-06T14:06:27.165Z,50240.00
2022-09-06T14:07:25.656Z,50976.00
2022-09-06T14:08:38.870Z,50624.00
2022-09-06T14:09:27.650Z,50528.00
2022-09-06T14:10:26.677Z,48640.00
2022-09-06T14:11:25.698Z,48992.00
2022-09-06T14:12:27.660Z,47808.00
2022-09-06T14:13:27.675Z,46560.00
2022-09-06T14:14:27.675Z,46592.00
2022-09-06T14:15:27.703Z,47776.00
2022-09-06T14:16:25.745Z,50464.00
2022-09-06T14:17:27.666Z,50848.00
2022-09-06T14:18:25.842Z,49536.00
2022-09-06T14:19:29.192Z,47072.00
2022-09-06T14:20:27.677Z,46944.00
2022-09-06T14:21:26.793Z,47744.00
2022-09-06T14:22:27.701Z,46688.00
2022-09-06T14:23:26.811Z,44960.00
2022-09-06T14:24:27.707Z,40000.00
2022-09-06T14:25:26.835Z,31904.00
2022-09-06T14:26:25.838Z,21792.00
2022-09-06T14:27:27.212Z,13728.00
2022-09-06T14:28:25.868Z,11732.00
2022-09-06T14:29:26.862Z,11872.00
2022-09-06T14:30:25.882Z,12412.00
2022-09-06T14:31:25.993Z,13316.00
2022-09-06T14:32:27.708Z,13924.00
2022-09-06T14:33:25.895Z,14200.00
2022-09-06T14:34:27.722Z,14472.00
2022-09-06T14:35:25.919Z,14880.00
2022-09-06T14:36:25.923Z,15176.00
2022-09-06T14:37:25.944Z,15224.00
2022-09-06T14:38:27.817Z,15324.00
2022-09-06T14:39:27.782Z,15164.00
2022-09-06T14:40:27.710Z,15268.00
2022-09-06T14:41:27.726Z,15108.00
2022-09-06T14:42:27.695Z,14508.00
2022-09-06T14:43:27.712Z,14216.00
2022-09-06T14:44:27.726Z,13992.00
2022-09-06T14:45:27.702Z,14292.00
2022-09-06T14:46:27.797Z,14196.00
2022-09-06T14:47:27.722Z,14268.00
2022-09-06T14:48:27.084Z,14560.00
2022-09-06T14:49:27.223Z,14520.00
2022-09-06T14:50:26.026Z,14704.00
2022-09-06T14:51:26.039Z,14452.00
2022-09-06T14:52:27.039Z,14412.00
2022-09-06T14:53:39.730Z,14844.00
2022-09-06T14:54:29.432Z,14952.00
2022-09-06T14:55:27.227Z,14768.00
2022-09-06T14:56:26.084Z,14876.00
2022-09-06T14:57:27.719Z,15064.00
2022-09-06T14:58:26.095Z,15744.00
2022-09-06T14:59:27.788Z,16128.00
2022-09-06T15:00:27.233Z,16640.00
2022-09-06T15:01:26.237Z,17248.00
2022-09-06T15:02:26.297Z,18400.00
2022-09-06T15:03:26.200Z,30496.00
2022-09-06T15:04:27.779Z,47136.00
2022-09-06T15:05:26.151Z,61472.00
2022-09-06T15:06:26.170Z,72544.00
2022-09-06T15:07:26.166Z,71136.00
2022-09-06T15:08:27.744Z,69568.00
2022-09-06T15:09:26.180Z,68704.00
2022-09-06T15:10:26.191Z,68064.00
2022-09-06T15:11:26.221Z,66400.00
2022-09-06T15:12:27.750Z,65856.00
2022-09-06T15:13:28.032Z,64608.00
2022-09-06T15:14:27.762Z,65120.00
2022-09-06T15:15:27.810Z,65408.00
2022-09-06T15:16:27.754Z,65600.00
2022-09-06T15:17:28.239Z,66880.00
2022-09-06T15:18:28.256Z,64160.00
2022-09-06T15:19:28.265Z,63520.00
2022-09-06T15:20:28.246Z,62496.00
2022-09-06T15:21:28.249Z,63328.00
2022-09-06T15:22:28.249Z,63456.00
2022-09-06T15:23:28.263Z,62688.00
2022-09-06T15:24:28.277Z,62464.00
2022-09-06T15:25:28.275Z,63040.00
2022-09-06T15:26:28.254Z,64352.00
2022-09-06T15:27:28.256Z,64480.00
2022-09-06T15:28:28.276Z,65056.00
2022-09-06T15:29:28.257Z,67200.00
2022-09-06T15:30:28.275Z,66880.00
2022-09-06T15:31:28.372Z,64448.00
2022-09-06T15:32:28.283Z,66528.00
2022-09-06T15:33:26.515Z,46944.00
2022-09-06T15:34:26.440Z,13808.00
2022-09-06T15:35:28.280Z,6676.00
2022-09-06T15:36:26.479Z,6308.00
2022-09-06T15:37:26.491Z,6048.00
2022-09-06T15:38:26.506Z,5784.00
2022-09-06T15:39:27.825Z,5520.00
2022-09-06T15:40:28.287Z,5268.00
2022-09-06T15:41:26.549Z,5044.00
2022-09-06T15:42:26.533Z,4836.00
2022-09-06T15:43:28.351Z,4668.00
2022-09-06T15:44:27.814Z,4496.00
2022-09-06T15:45:28.323Z,4368.00
2022-09-06T15:46:28.359Z,4224.00
2022-09-06T15:47:26.585Z,4104.00
2022-09-06T15:48:26.593Z,3996.00
2022-09-06T15:49:28.788Z,3892.00
2022-09-06T15:50:49.750Z,3768.00
2022-09-06T15:51:28.303Z,3668.00
2022-09-06T15:52:28.288Z,3604.00
2022-09-06T15:53:28.377Z,3548.00
2022-09-06T15:54:28.293Z,3500.00
2022-09-06T15:55:26.651Z,3448.00
2022-09-06T15:56:28.323Z,3408.00
2022-09-06T15:57:26.663Z,3380.00
2022-09-06T15:58:26.693Z,3352.00
2022-09-06T15:59:28.307Z,3328.00
2022-09-06T16:00:26.704Z,3308.00
2022-09-06T16:12:05.546Z,2908.00
2022-09-06T16:13:05.546Z,2864.00
2022-09-06T16:14:05.560Z,2820.00
2022-09-06T16:15:05.543Z,2780.00
2022-09-06T16:16:05.542Z,2732.00
2022-09-06T16:17:05.610Z,2688.00
2022-09-06T16:18:05.575Z,2632.00
2022-09-06T16:19:05.549Z,2592.00
2022-09-06T16:20:05.545Z,2560.00
2022-09-06T16:21:05.545Z,2528.00
2022-09-06T16:22:05.557Z,2520.00
2022-09-06T16:23:05.559Z,2508.00
2022-09-06T16:24:05.006Z,2484.00
2022-09-06T16:25:05.584Z,2436.00
2022-09-06T16:26:05.557Z,2408.00
2022-09-06T16:27:05.557Z,2392.00
2022-09-06T16:28:05.554Z,2364.00
2022-09-06T16:29:05.566Z,2324.00
2022-09-06T16:30:05.576Z,2288.00
2022-09-06T16:31:05.648Z,2244.00
2022-09-06T16:32:05.572Z,2236.00
2022-09-06T16:33:05.022Z,2176.00
2022-09-06T16:34:05.568Z,2152.00
2022-09-06T16:35:04.033Z,2132.00
2022-09-06T16:36:04.037Z,2104.00
2022-09-06T16:37:05.578Z,2056.00
2022-09-06T16:38:07.275Z,2032.00
2022-09-06T16:39:04.036Z,2004.00
2022-09-06T16:40:05.645Z,1876.00
2022-09-06T16:41:04.047Z,1856.00
2022-09-06T16:42:05.579Z,1808.00
2022-09-06T16:43:05.059Z,1724.00
2022-09-06T16:44:05.580Z,1692.00
2022-09-06T16:45:05.578Z,1692.00
2022-09-06T16:46:05.627Z,1652.00
2022-09-06T16:47:05.592Z,1648.00
2022-09-06T16:48:05.584Z,1688.00
2022-09-06T16:49:05.587Z,1716.00
2022-09-06T16:50:05.578Z,1680.00
2022-09-06T16:51:05.577Z,1548.00
2022-09-06T16:52:05.600Z,1448.00
2022-09-06T16:53:05.573Z,1380.00
2022-09-06T16:54:05.590Z,1320.00
2022-09-06T16:55:05.610Z,1280.00
2022-09-06T16:56:05.583Z,1260.00
2022-09-06T16:57:05.582Z,1268.00
2022-09-06T16:58:05.590Z,1308.00
2022-09-06T16:59:05.584Z,1348.00
2022-09-06T17:00:05.610Z,1380.00
2022-09-06T17:01:05.631Z,1380.00
2022-09-06T17:02:05.701Z,1348.00
2022-09-06T17:03:05.588Z,1304.00
2022-09-06T17:04:05.600Z,1280.00
2022-09-06T17:05:05.603Z,1256.00